Worsley, Canada
Current Conditions -  °F | °C
As of 3:00 AM on Thursday 18 Dec 2014 (Local Time) from CYPE Reporting Station
Clear Clear  
Wind Chill: -8°   Ceiling: Unl
Heat Index:   Visibility: 15mi
Dew Point:   Wind: 6mph
Humidity: 85%   Direction: 230°SW
Pressure: 29.79"   Gusts: NA
Location:  56.52°N, 119.07°W
Report Text: CYPE 181000Z 23005KT 15SM SKC M16/M18 A2979 RMK SLP136
Loading
Personal Weather Stations






























Interactive Weather Map New forecast layout! Learn more

10-Day Weather Forecast

Advertisements
Track Severe Weather on mobile